MUC | München Airways

 METAR UND TAF INFORMATION

METAR FOR UNKL
ADDS - METARS form results

(0854 UTC 22 March 2019)
Data provider http://aviationweather.gov/metar/data/
 
METAR text: UNKL 220830Z 26007MPS CAVOK 07/M10 Q1019 R29/CLRD65 NOSIG RMK QFE739
Conditions at: UNKL (KRASNOYARSK , RU) observed 0830 UTC 22 March 2019
Temperature: 7.0°C (45°F)
Dewpoint: -10.0°C (14°F) [RH = 29%]
Pressure (altimeter): 30.09 inches Hg (1019.0 mb)
Winds: from the W (260 degrees) at 16 MPH (14 knots; 7.2 m/s)
Visibility: 6 or more miles (10+ km)
Ceiling: ceiling and visibility are OK
Clouds: unknown
Weather: no significant weather observed at this time

METAR text: UNKL 220800Z 24007MPS CAVOK 07/M10 Q1019 R29/CLRD65 NOSIG RMK QFE739
Conditions at: UNKL (KRASNOYARSK , RU) observed 0800 UTC 22 March 2019
Temperature: 7.0°C (45°F)
Dewpoint: -10.0°C (14°F) [RH = 29%]
Pressure (altimeter): 30.09 inches Hg (1019.0 mb)
Winds: from the WSW (240 degrees) at 16 MPH (14 knots; 7.2 m/s)
Visibility: 6 or more miles (10+ km)
Ceiling: ceiling and visibility are OK
Clouds: unknown
Weather: no significant weather observed at this time

Forecast for: UNKL (KRASNOYARSK , RU)
Text: TAF UNKL 220800Z 2209/2309 26005G13MPS CAVOK
Forecast period: 0900 to 1400 UTC 22 March 2019
Forecast type: FROM: standard forecast or significant change
Winds: from the W (260 degrees) at 12 MPH (10 knots; 5.1 m/s)
gusting to 29 MPH (25 knots; 12.9 m/s)
Visibility: 6 or more miles 10+ km)
Ceiling: unknown
Clouds: missing
Weather: NSW  (no significant weather)
Text: FM221400 28003G10MPS 9999 SCT020CB
Forecast period: 1400 UTC 22 March 2019 to 0900 UTC 23 March 2019
Forecast type: FROM: standard forecast or significant change
Winds: from the W (280 degrees) at 7 MPH (6 knots; 3.1 m/s)
gusting to 22 MPH (19 knots; 9.8 m/s)
Visibility: 6 or more miles 10+ km)
Ceiling: at least 12,000 feet AGL
Clouds: scattered clouds at 2000 feet AGL
Weather: no significant weather forecast for this period
Text: TEMPO 2223/2309 3500 -SHSN
Forecast period: 2300 UTC 22 March 2019 to 0900 UTC 23 March 2019
Forecast type: TEMPORARY: The following changes expected for less than half the time period
Visibility: 2.17 miles (3.49 km)
Ceiling: unknown
Clouds: missing
Weather: -SHSN  (light snow showers)

 FLUGHAFENKARTE

 RUNWAY INFORMATION
Runway 11 Runway length 12150 ft Runway width 197 ft
Runway elevation 942 ft Runway displaced threshold 0 ft Runway heading 113
Runway 29 Runway length 12150 ft Runway width 197 ft
Runway elevation 942 ft Runway displaced threshold 0 ft Runway heading 293

 AIRPORT FREQUENCIES
Type APP Name KRASNOYARS Frequency 127.7 MHZ
Type TWR Name KRASNOYARS Frequency 118.3 MHZ
Type TWR Name KRASNOYARS Frequency 121.9 MHZ

 AIRPORT NEAR NAVIGATION AIDS
Type NDB Name Krasnoyarsk Frequency 334 KHZ
Type NDB Name Staritsa Frequency 430 KHZ
Type NDB Name Krasnoyarsk Frequency 334 KHZ
Type VOR-DME Name Krasnoyarsk Frequency 113200 KHZ